Time;durP1;ratioP1;P1;durP2;ratioP2;P2;SDS_P1;SDS_P2;PMS_P1;PMS_P2;Temp;Humidity;BMP_temperature;BMP_pressure;BME280_temperature;BME280_humidity;BME280_pressure;Samples;Min_cycle;Max_cycle;Signal;HPM_P1;HPM_P2
2021/11/03 00:02:09;;;;;;;2.08;1.75;;;6.40;99.90;;;;;;6260093;28;20037;-87
2021/11/03 00:05:11;;;;;;;2.13;1.67;;;6.50;99.90;;;;;;6227035;28;20124;-87
2021/11/03 00:08:13;;;;;;;1.88;1.67;;;6.60;99.90;;;;;;6223531;28;20040;-88
2021/11/03 00:11:14;;;;;;;1.63;1.53;;;;;;;;;;6236472;28;20415;-85
2021/11/03 00:14:14;;;;;;;2.90;1.77;;;6.50;99.90;;;;;;6253209;28;20051;-86
2021/11/03 00:17:15;;;;;;;3.30;1.98;;;6.40;99.90;;;;;;6230251;28;20033;-90
2021/11/03 00:20:16;;;;;;;2.15;1.70;;;6.60;99.90;;;;;;6228354;28;20394;-85
2021/11/03 00:23:16;;;;;;;2.72;2.20;;;6.60;99.90;;;;;;6219179;28;20131;-85
2021/11/03 00:26:17;;;;;;;2.40;1.85;;;;;;;;;;6241991;28;20027;-84
2021/11/03 00:29:18;;;;;;;3.17;2.00;;;6.80;99.90;;;;;;6252993;28;20115;-87
2021/11/03 00:32:19;;;;;;;3.35;1.67;;;;;;;;;;6259781;28;20024;-84
2021/11/03 00:35:19;;;;;;;5.65;1.80;;;6.70;99.90;;;;;;6269955;28;20383;-88
2021/11/03 00:38:21;;;;;;;4.15;1.83;;;;;;;;;;6241514;28;20105;-84
2021/11/03 00:41:21;;;;;;;2.08;1.70;;;6.80;99.90;;;;;;6257845;28;20053;-87
2021/11/03 00:44:22;;;;;;;2.53;1.88;;;6.50;99.90;;;;;;6228654;28;20053;-85
2021/11/03 00:47:23;;;;;;;2.83;2.10;;;;;;;;;;6238527;28;20038;-85
2021/11/03 00:50:24;;;;;;;2.30;2.10;;;;;;;;;;6252585;28;20033;-86
2021/11/03 00:53:25;;;;;;;3.53;2.15;;;;;;;;;;6252041;28;20073;-86
2021/11/03 00:56:26;;;;;;;3.10;2.35;;;;;;;;;;6255511;28;20479;-86
2021/11/03 00:59:27;;;;;;;2.17;1.95;;;6.80;99.90;;;;;;6258242;28;20056;-84
2021/11/03 01:02:29;;;;;;;6.47;2.70;;;;;;;;;;6229589;28;20043;-85
2021/11/03 01:05:30;;;;;;;2.20;2.00;;;;;;;;;;6248364;28;20462;-83
2021/11/03 01:08:32;;;;;;;2.47;1.92;;;6.70;99.90;;;;;;6248238;28;20029;-87
2021/11/03 01:11:33;;;;;;;4.50;2.15;;;6.90;99.90;;;;;;6232584;28;20044;-84
2021/11/03 01:14:34;;;;;;;4.65;2.38;;;;;;;;;;6228170;28;20029;-84
2021/11/03 01:17:35;;;;;;;2.75;2.15;;;6.80;99.90;;;;;;6251401;28;20029;-83
2021/11/03 01:20:36;;;;;;;3.47;2.50;;;;;;;;;;6250166;28;20071;-83
2021/11/03 01:23:37;;;;;;;2.75;2.38;;;6.90;99.90;;;;;;6263095;28;20029;-85
2021/11/03 01:26:37;;;;;;;3.30;2.20;;;7.00;99.90;;;;;;6232402;28;20486;-83
2021/11/03 01:29:38;;;;;;;2.92;2.63;;;6.90;99.90;;;;;;6253878;28;20392;-84
2021/11/03 01:32:39;;;;;;;2.35;2.00;;;;;;;;;;6233771;28;20034;-85
2021/11/03 01:35:39;;;;;;;3.90;2.40;;;6.70;99.90;;;;;;6249279;28;20067;-86
2021/11/03 01:38:40;;;;;;;3.28;2.15;;;;;;;;;;6215478;28;20033;-86
2021/11/03 01:41:41;;;;;;;3.67;2.35;;;7.00;99.90;;;;;;6248650;28;20907;-88
2021/11/03 01:44:42;;;;;;;2.45;1.70;;;;;;;;;;6228272;28;20056;-86
2021/11/03 01:47:44;;;;;;;3.45;2.58;;;7.10;99.90;;;;;;6249994;28;20549;-85
2021/11/03 01:50:49;;;;;;;3.30;1.90;;;7.20;99.90;;;;;;6250628;28;20441;-87
2021/11/03 01:53:50;;;;;;;2.20;2.00;;;;;;;;;;6262957;28;20586;-87
2021/11/03 01:56:51;;;;;;;2.42;1.88;;;;;;;;;;6255338;28;20056;-87
2021/11/03 01:59:55;;;;;;;2.13;1.75;;;7.10;99.90;;;;;;6245786;28;20030;-84
2021/11/03 02:03:00;;;;;;;2.20;2.00;;;7.10;99.90;;;;;;6233737;28;20777;-86
2021/11/03 02:06:06;;;;;;;3.22;1.70;;;7.40;99.90;;;;;;6253834;28;20116;-86
2021/11/03 02:09:07;;;;;;;1.48;1.38;;;7.60;99.90;;;;;;6246141;28;20032;-85
2021/11/03 02:12:17;;;;;;;2.08;1.25;;;7.60;99.90;;;;;;6214967;28;20033;-85
2021/11/03 02:15:18;;;;;;;4.05;1.40;;;;;;;;;;6216757;28;20061;-85
2021/11/03 02:18:19;;;;;;;1.15;1.05;;;7.50;99.90;;;;;;6258451;28;20128;-84
2021/11/03 02:21:27;;;;;;;1.55;1.42;;;7.70;99.90;;;;;;6239463;28;20055;-87
2021/11/03 02:24:54;;;;;;;0.95;0.95;;;6.50;99.90;;;;;;6259565;28;20522;-85
2021/11/03 02:27:55;;;;;;;1.70;1.60;;;7.70;99.90;;;;;;6200510;28;20443;-85
2021/11/03 02:30:56;;;;;;;1.50;1.30;;;;;;;;;;6185982;28;20450;-85
2021/11/03 02:33:57;;;;;;;1.77;1.40;;;;;;;;;;6193844;28;20058;-84
2021/11/03 02:37:03;;;;;;;1.48;1.38;;;7.60;99.90;;;;;;6196678;28;20457;-85
2021/11/03 02:40:04;;;;;;;1.60;1.50;;;;;;;;;;6179854;28;20061;-86
2021/11/03 02:43:15;;;;;;;1.30;1.20;;;7.30;99.90;;;;;;6208174;28;20455;-85
2021/11/03 02:46:16;;;;;;;3.38;2.22;;;7.50;99.90;;;;;;6177626;28;20393;-85
2021/11/03 02:49:16;;;;;;;14.27;8.98;;;7.60;99.90;;;;;;6163576;28;20026;-86
2021/11/03 02:52:19;;;;;;;1.80;1.58;;;7.60;99.90;;;;;;6169667;28;20101;-84
2021/11/03 02:55:20;;;;;;;1.30;1.20;;;7.50;99.90;;;;;;6174124;28;20105;-86
2021/11/03 02:58:21;;;;;;;3.08;2.78;;;7.50;99.90;;;;;;6166300;28;20562;-86
2021/11/03 03:01:45;;;;;;;1.42;1.33;;;7.60;99.90;;;;;;6160397;28;20041;-85
2021/11/03 03:04:48;;;;;;;4.70;1.83;;;7.70;99.90;;;;;;6215609;28;20124;-85
2021/11/03 03:07:50;;;;;;;5.97;4.07;;;7.60;99.90;;;;;;6235328;28;20525;-85
2021/11/03 03:10:51;;;;;;;5.47;4.95;;;;;;;;;;6233117;28;20040;-85
2021/11/03 03:13:52;;;;;;;2.20;2.00;;;7.40;99.90;;;;;;6257572;28;20021;-85
2021/11/03 03:16:53;;;;;;;1.77;1.63;;;;;;;;;;6216268;28;20038;-85
2021/11/03 03:19:54;;;;;;;1.90;1.80;;;7.50;99.90;;;;;;6273599;28;20104;-87
2021/11/03 03:22:55;;;;;;;1.40;1.30;;;;;;;;;;6246848;28;20396;-87
2021/11/03 03:25:57;;;;;;;1.30;1.20;;;7.30;99.90;;;;;;6257017;28;20025;-86
2021/11/03 03:28:58;;;;;;;1.25;1.15;;;7.40;99.90;;;;;;6235378;28;20037;-88
2021/11/03 03:31:59;;;;;;;1.13;1.02;;;7.30;99.90;;;;;;6239256;28;20029;-86
2021/11/03 03:35:00;;;;;;;1.60;1.50;;;;;;;;;;6255550;28;20036;-86
2021/11/03 03:38:01;;;;;;;1.27;1.20;;;;;;;;;;6261563;28;20024;-86
2021/11/03 03:41:02;;;;;;;4.07;2.50;;;7.50;99.90;;;;;;6251138;28;20033;-86
2021/11/03 03:44:03;;;;;;;1.55;1.45;;;;;;;;;;6246430;28;20067;-86
2021/11/03 03:47:04;;;;;;;1.75;1.65;;;7.50;99.90;;;;;;6262297;28;20037;-87
2021/11/03 03:50:05;;;;;;;1.50;1.40;;;7.30;99.90;;;;;;6233863;28;20103;-88
2021/11/03 03:53:06;;;;;;;1.80;1.70;;;;;;;;;;6241294;28;20033;-88
2021/11/03 03:56:06;;;;;;;3.80;1.67;;;7.20;99.90;;;;;;6257572;28;20040;-89
2021/11/03 03:59:07;;;;;;;1.77;1.60;;;7.30;99.90;;;;;;6241356;28;20623;-85
2021/11/03 04:02:08;;;;;;;2.55;1.42;;;;;;;;;;6232462;28;20465;-87
2021/11/03 04:05:09;;;;;;;1.35;1.25;;;6.90;99.90;;;;;;6259904;28;20036;-86
2021/11/03 04:08:10;;;;;;;1.92;1.83;;;7.20;99.90;;;;;;6260108;28;20467;-86
2021/11/03 04:11:11;;;;;;;1.40;1.30;;;;;;;;;;6238165;28;20045;-86
2021/11/03 04:14:12;;;;;;;1.45;1.35;;;;;;;;;;6252971;28;20040;-86
2021/11/03 04:17:13;;;;;;;1.48;1.38;;;;;;;;;;6250678;28;20027;-87
2021/11/03 04:20:15;;;;;;;1.90;1.80;;;;;;;;;;6258600;28;20384;-88
2021/11/03 04:23:16;;;;;;;1.35;1.33;;;;;;;;;;6249658;28;20041;-86
2021/11/03 04:26:28;;;;;;;1.00;1.00;;;7.20;99.90;;;;;;6260814;28;20021;-88
2021/11/03 04:29:29;;;;;;;2.43;1.20;;;;;;;;;;6235403;28;20025;-86
2021/11/03 04:32:30;;;;;;;2.58;1.40;;;;;;;;;;6253352;28;20323;-86
2021/11/03 04:35:31;;;;;;;1.55;1.45;;;;;;;;;;6259024;28;20047;-86
2021/11/03 04:38:31;;;;;;;2.28;1.90;;;6.90;99.90;;;;;;6259299;28;20484;-88
2021/11/03 04:41:32;;;;;;;1.48;1.40;;;;;;;;;;6235199;28;20044;-86
2021/11/03 04:44:33;;;;;;;1.73;1.63;;;7.30;99.90;;;;;;6256603;28;20061;-87
2021/11/03 04:47:34;;;;;;;1.63;1.40;;;;;;;;;;6222688;28;20037;-85
2021/11/03 04:50:35;;;;;;;1.25;1.15;;;6.90;99.90;;;;;;6274640;28;20032;-85
2021/11/03 04:53:36;;;;;;;1.77;1.63;;;;;;;;;;6246373;28;20033;-85
2021/11/03 04:56:37;;;;;;;1.65;1.38;;;;;;;;;;6259924;28;20036;-86
2021/11/03 04:59:37;;;;;;;1.55;1.45;;;7.20;99.90;;;;;;6256747;28;20033;-87
2021/11/03 05:02:39;;;;;;;2.35;1.33;;;;;;;;;;6220086;28;20450;-86
2021/11/03 05:05:39;;;;;;;1.33;1.23;;;7.10;99.90;;;;;;6262114;28;20021;-86
2021/11/03 05:08:40;;;;;;;1.63;1.13;;;;;;;;;;6257860;28;20462;-86
2021/11/03 05:11:41;;;;;;;1.13;1.13;;;7.20;99.90;;;;;;6250282;28;20033;-87
2021/11/03 05:14:42;;;;;;;1.35;1.25;;;;;;;;;;6237368;28;20087;-88
2021/11/03 05:17:43;;;;;;;1.50;1.40;;;;;;;;;;6251533;28;20108;-87
2021/11/03 05:20:44;;;;;;;3.03;2.58;;;6.90;99.90;;;;;;6272619;28;20025;-87
2021/11/03 05:23:45;;;;;;;4.40;3.17;;;;;;;;;;6225878;28;20096;-88
2021/11/03 05:26:46;;;;;;;6.60;5.20;;;;;;;;;;6255994;28;20398;-87
2021/11/03 05:29:47;;;;;;;3.90;3.35;;;7.00;99.90;;;;;;6255935;28;20037;-87
2021/11/03 05:32:47;;;;;;;1.90;1.80;;;7.00;99.90;;;;;;6238022;28;20456;-88
2021/11/03 05:35:48;;;;;;;1.08;1.08;;;;;;;;;;6252040;28;20049;-85
2021/11/03 05:38:49;;;;;;;1.45;1.35;;;7.20;99.90;;;;;;6255335;28;20502;-86
2021/11/03 05:41:50;;;;;;;1.85;1.52;;;;;;;;;;6232739;28;20828;-86
2021/11/03 05:44:51;;;;;;;1.98;1.42;;;7.50;99.90;;;;;;6256479;28;20705;-85
2021/11/03 05:47:52;;;;;;;1.75;1.63;;;;;;;;;;6250726;28;20037;-85
2021/11/03 05:50:53;;;;;;;2.10;1.90;;;;;;;;;;6270931;28;20116;-86
2021/11/03 05:53:54;;;;;;;1.77;1.67;;;;;;;;;;6271789;28;20025;-85
2021/11/03 05:56:55;;;;;;;1.98;1.80;;;7.30;99.90;;;;;;6250299;28;20041;-85
2021/11/03 05:59:56;;;;;;;2.17;1.87;;;7.20;99.90;;;;;;6257416;28;20033;-83
2021/11/03 06:02:57;;;;;;;5.00;4.13;;;;;;;;;;6232780;28;20514;-84
2021/11/03 06:05:58;;;;;;;4.45;2.30;;;7.30;99.90;;;;;;6250200;28;20029;-85
2021/11/03 06:08:58;;;;;;;3.65;2.22;;;7.30;99.90;;;;;;6251873;28;20032;-84
2021/11/03 06:12:00;;;;;;;2.80;1.67;;;7.40;99.90;;;;;;6232806;28;20032;-83
2021/11/03 06:15:00;;;;;;;6.20;2.10;;;7.30;99.90;;;;;;6243103;28;20032;-83
2021/11/03 06:18:01;;;;;;;3.75;3.03;;;;;;;;;;6258867;28;20475;-84
2021/11/03 06:21:02;;;;;;;3.13;2.83;;;7.60;99.90;;;;;;6241988;28;20056;-83
2021/11/03 06:24:03;;;;;;;2.20;2.00;;;7.30;99.90;;;;;;6242403;28;20038;-83
2021/11/03 06:27:04;;;;;;;2.28;1.60;;;7.30;99.90;;;;;;6250912;28;20025;-83
2021/11/03 06:30:05;;;;;;;1.90;1.80;;;7.70;99.90;;;;;;6240943;28;20063;-85
2021/11/03 06:33:06;;;;;;;5.22;2.13;;;7.30;99.90;;;;;;6215990;28;20029;-85
2021/11/03 06:36:07;;;;;;;2.13;1.92;;;7.20;99.90;;;;;;6241626;28;20087;-84
2021/11/03 06:39:08;;;;;;;2.80;2.33;;;7.30;99.90;;;;;;6246058;28;20025;-85
2021/11/03 06:42:09;;;;;;;15.68;10.30;;;7.40;99.90;;;;;;6247794;28;20407;-87
2021/11/03 06:45:10;;;;;;;9.63;6.72;;;7.80;99.90;;;;;;6220201;28;20163;-84
2021/11/03 06:48:11;;;;;;;2.25;2.05;;;7.30;99.90;;;;;;6248549;28;20116;-82
2021/11/03 06:51:11;;;;;;;3.38;2.58;;;7.60;99.90;;;;;;6264510;28;20040;-84
2021/11/03 06:54:12;;;;;;;3.13;2.10;;;7.50;99.90;;;;;;6244993;28;20033;-84
2021/11/03 06:57:13;;;;;;;3.08;1.90;;;7.40;99.90;;;;;;6249686;28;20032;-82
2021/11/03 07:00:16;;;;;;;5.32;3.40;;;7.60;99.90;;;;;;6240112;28;20463;-84
2021/11/03 07:03:18;;;;;;;6.72;3.53;;;;;;;;;;6258036;28;20060;-83
2021/11/03 07:06:19;;;;;;;2.70;2.00;;;;;;;;;;6262600;28;20029;-82
2021/11/03 07:09:20;;;;;;;3.35;2.90;;;;;;;;;;6254365;28;20029;-82
2021/11/03 07:12:21;;;;;;;3.58;2.40;;;;;;;;;;6262993;28;20022;-84
2021/11/03 07:15:22;;;;;;;3.40;2.80;;;;;;;;;;6266971;28;20129;-85
2021/11/03 07:18:23;;;;;;;4.38;3.97;;;;;;;;;;6246128;28;20100;-82
2021/11/03 07:21:23;;;;;;;4.18;2.58;;;7.70;99.90;;;;;;6261703;28;20095;-82
2021/11/03 07:24:24;;;;;;;4.65;2.60;;;;;;;;;;6260361;28;20116;-81
2021/11/03 07:27:25;;;;;;;9.45;4.65;;;7.80;99.90;;;;;;6264762;28;20021;-82
2021/11/03 07:30:28;;;;;;;3.70;2.63;;;7.80;99.90;;;;;;6244627;28;20029;-82
2021/11/03 07:33:29;;;;;;;2.53;1.73;;;;;;;;;;6245102;28;20124;-81
2021/11/03 07:36:32;;;;;;;4.07;1.90;;;;;;;;;;6242466;28;20036;-81
2021/11/03 07:39:32;;;;;;;;;;;8.00;99.90;;;;;;6250089;28;20468;-82
2021/11/03 07:42:33;;;;;;;4.13;2.50;;;7.60;99.90;;;;;;6244261;28;19921;-81
2021/11/03 07:45:34;;;;;;;1.98;1.80;;;8.00;99.90;;;;;;6244690;28;20061;-80
2021/11/03 07:48:35;;;;;;;1.90;1.73;;;8.10;99.90;;;;;;6245012;28;20535;-82
2021/11/03 07:51:36;;;;;;;5.05;2.22;;;;;;;;;;6262099;28;20066;-81
2021/11/03 07:54:36;;;;;;;4.30;1.95;;;8.00;99.90;;;;;;6261787;28;20113;-81
2021/11/03 07:57:37;;;;;;;2.00;1.80;;;7.80;99.90;;;;;;6252395;28;20037;-81
2021/11/03 08:00:37;;;;;;;2.03;1.80;;;7.80;99.90;;;;;;6248377;28;20041;-81
2021/11/03 08:03:38;;;;;;;2.70;2.00;;;8.20;99.90;;;;;;6254558;28;20053;-85
2021/11/03 08:06:39;;;;;;;3.20;2.90;;;;;;;;;;6247297;28;20033;-83
2021/11/03 08:09:45;;;;;;;2.92;2.38;;;8.00;99.90;;;;;;6258004;28;20099;-83
2021/11/03 08:12:46;;;;;;;5.57;2.15;;;8.40;99.90;;;;;;6244166;28;20121;-82
2021/11/03 08:15:48;;;;;;;11.68;3.17;;;8.20;99.90;;;;;;6244007;28;20034;-82
2021/11/03 08:18:49;;;;;;;2.45;2.17;;;;;;;;;;6259529;28;20026;-82
2021/11/03 08:21:50;;;;;;;3.55;2.58;;;;;;;;;;6260594;28;20041;-82
2021/11/03 08:24:52;;;;;;;4.65;3.40;;;8.30;99.90;;;;;;6261949;28;20057;-83
2021/11/03 08:27:53;;;;;;;5.27;4.17;;;8.20;99.90;;;;;;6242543;28;20033;-84
2021/11/03 08:30:54;;;;;;;6.68;5.07;;;8.40;99.90;;;;;;6246393;28;20413;-82
2021/11/03 08:33:55;;;;;;;5.85;4.60;;;8.20;99.90;;;;;;6213907;28;20044;-82
2021/11/03 08:36:58;;;;;;;7.15;5.15;;;8.10;99.90;;;;;;6235707;28;20387;-81
2021/11/03 08:39:59;;;;;;;7.10;4.78;;;8.10;99.90;;;;;;6252176;28;20026;-83
2021/11/03 08:43:11;;;;;;;7.75;5.30;;;8.10;99.90;;;;;;6245817;28;20091;-85
2021/11/03 08:46:15;;;;;;;13.43;8.35;;;8.00;99.90;;;;;;6246636;28;20057;-83
2021/11/03 08:53:18;;;;;;;5.18;3.63;;;;;;;;;;6253158;28;20083;-81
2021/11/03 08:56:19;;;;;;;6.75;4.55;;;;;;;;;;6252985;28;20025;-81
2021/11/03 08:59:20;;;;;;;5.00;4.30;;;;;;;;;;6255641;28;20112;-82
2021/11/03 09:02:21;;;;;;;5.22;4.15;;;8.30;99.90;;;;;;6261401;28;20045;-80
2021/11/03 09:05:23;;;;;;;5.50;4.22;;;8.30;99.90;;;;;;6238072;28;20474;-81
2021/11/03 09:08:24;;;;;;;6.40;4.60;;;8.50;99.90;;;;;;6243925;28;20422;-81
2021/11/03 09:11:27;;;;;;;6.03;5.25;;;8.50;99.90;;;;;;6239291;28;20357;-84
2021/11/03 09:14:27;;;;;;;6.03;5.38;;;8.50;99.90;;;;;;6225503;28;20037;-83
2021/11/03 09:17:31;;;;;;;7.40;5.03;;;8.40;99.90;;;;;;6240861;28;20029;-89
2021/11/03 09:20:32;;;;;;;7.18;5.30;;;;;;;;;;6233559;28;20063;-84
2021/11/03 09:23:33;;;;;;;6.82;5.55;;;8.30;99.90;;;;;;6255013;28;20520;-84
2021/11/03 09:26:34;;;;;;;19.40;7.82;;;;;;;;;;6255253;28;20044;-87
2021/11/03 09:29:35;;;;;;;8.35;6.60;;;;;;;;;;6266218;28;20028;-88
2021/11/03 09:32:37;;;;;;;8.88;6.45;;;8.70;99.90;;;;;;6267594;28;20037;-82
2021/11/03 09:35:39;;;;;;;;;;;8.40;99.90;;;;;;6244513;28;20088;-84
2021/11/03 09:38:40;;;;;;;6.95;5.50;;;8.80;99.90;;;;;;6243307;28;19919;-83
2021/11/03 09:41:44;;;;;;;7.65;5.35;;;8.60;99.90;;;;;;6252774;28;20049;-83
2021/11/03 09:44:46;;;;;;;5.95;4.10;;;8.90;99.90;;;;;;6260292;28;20053;-81
2021/11/03 09:48:26;;;;;;;1.37;1.30;;;8.80;99.90;;;;;;6250604;28;20439;-83
2021/11/03 09:51:28;;;;;;;2.22;2.03;;;8.90;99.90;;;;;;6268148;28;20380;-83
2021/11/03 09:54:36;;;;;;;1.90;1.80;;;9.80;99.90;;;;;;6224519;28;20116;-84
2021/11/03 09:57:52;;;;;;;0.95;0.95;;;8.90;99.90;;;;;;6259994;28;20382;-86
2021/11/03 10:00:55;;;;;;;1.02;0.98;;;8.90;99.90;;;;;;6248431;28;20059;-87
2021/11/03 10:04:20;;;;;;;2.20;1.20;;;8.80;99.90;;;;;;6243969;28;20033;-83
2021/11/03 10:07:21;;;;;;;1.35;1.10;;;;;;;;;;6241507;28;20029;-82
2021/11/03 10:10:24;;;;;;;0.70;0.70;;;8.60;99.90;;;;;;6257856;28;20091;-81
2021/11/03 10:13:29;;;;;;;;;;;9.20;99.90;;;;;;6265747;28;20035;-82
2021/11/03 10:16:31;;;;;;;2.40;2.20;;;8.80;99.90;;;;;;6272818;28;20383;-83
2021/11/03 10:19:33;;;;;;;2.88;1.95;;;8.80;99.90;;;;;;6245953;28;20044;-85
2021/11/03 10:22:41;;;;;;;2.75;1.80;;;8.60;99.90;;;;;;6230743;28;20562;-85
2021/11/03 10:25:46;;;;;;;2.50;2.30;;;9.80;99.90;;;;;;6260739;28;20114;-84
2021/11/03 10:29:06;;;;;;;1.50;1.40;;;8.40;99.90;;;;;;6245664;28;20041;-85
2021/11/03 10:32:10;;;;;;;1.40;1.30;;;8.60;99.90;;;;;;6250286;28;20060;-83
2021/11/03 10:35:43;;;;;;;1.70;1.60;;;8.40;99.90;;;;;;6247353;28;20029;-83
2021/11/03 10:38:53;;;;;;;;;;;8.70;99.90;;;;;;6247814;28;20041;-84
2021/11/03 10:42:01;;;;;;;1.30;1.20;;;8.60;99.90;;;;;;6264453;28;19921;-84
2021/11/03 10:45:11;;;;;;;1.75;1.55;;;8.40;99.90;;;;;;6229797;28;20045;-83
2021/11/03 10:48:25;;;;;;;1.00;0.90;;;8.10;99.90;;;;;;6260890;28;20033;-83
2021/11/03 10:51:34;;;;;;;0.90;0.90;;;8.30;99.90;;;;;;6235757;28;20040;-83
2021/11/03 10:55:20;;;;;;;0.80;0.80;;;8.10;99.90;;;;;;6247322;28;20430;-84
2021/11/03 10:58:50;;;;;;;2.13;1.75;;;8.30;99.90;;;;;;6208234;28;20045;-85
2021/11/03 11:01:55;;;;;;;1.58;1.48;;;8.30;99.90;;;;;;6257193;28;20041;-86
2021/11/03 11:04:56;;;;;;;1.70;1.60;;;8.40;99.90;;;;;;6259671;28;20029;-81
2021/11/03 11:08:06;;;;;;;2.10;1.80;;;8.30;99.90;;;;;;6253402;28;20168;-83
2021/11/03 11:11:12;;;;;;;2.15;1.88;;;8.40;99.90;;;;;;6235280;28;20065;-83
2021/11/03 11:14:19;;;;;;;2.95;1.80;;;8.70;99.90;;;;;;6243439;28;20483;-82
2021/11/03 11:17:26;;;;;;;2.30;1.38;;;8.50;99.90;;;;;;6262768;28;20029;-85
2021/11/03 11:20:36;;;;;;;2.22;1.88;;;8.20;99.90;;;;;;6227763;28;20627;-83
2021/11/03 11:23:40;;;;;;;3.85;2.50;;;8.40;99.90;;;;;;6246329;28;20045;-83
2021/11/03 11:26:55;;;;;;;13.85;8.63;;;8.90;99.90;;;;;;6209018;28;20040;-84
2021/11/03 11:30:10;;;;;;;66.53;40.08;;;8.50;99.90;;;;;;6268321;28;20032;-84
2021/11/03 11:33:46;;;;;;;15.77;9.10;;;8.80;99.90;;;;;;6251737;28;20029;-84
2021/11/03 11:36:53;;;;;;;8.00;6.20;;;8.40;99.90;;;;;;6248465;28;20029;-83
2021/11/03 11:40:04;;;;;;;6.03;3.85;;;8.80;99.90;;;;;;6247260;28;20163;-83
2021/11/03 11:43:29;;;;;;;4.00;3.42;;;8.70;99.90;;;;;;6255269;28;20053;-82
2021/11/03 11:46:31;;;;;;;5.25;3.92;;;8.70;99.90;;;;;;6244853;28;20041;-82
2021/11/03 11:49:39;;;;;;;5.32;3.58;;;8.60;99.90;;;;;;6232134;28;20688;-84
2021/11/03 11:52:40;;;;;;;1.90;1.80;;;8.80;99.90;;;;;;6244899;28;20040;-83
2021/11/03 11:55:41;;;;;;;6.38;3.30;;;;;;;;;;6233587;28;20467;-83
2021/11/03 11:58:43;;;;;;;2.13;1.90;;;8.70;99.90;;;;;;6263289;28;20060;-82
2021/11/03 12:01:46;;;;;;;7.43;2.80;;;8.50;99.90;;;;;;6243098;28;20045;-85
2021/11/03 12:04:47;;;;;;;4.40;3.05;;;8.50;99.90;;;;;;6260538;28;20801;-82
2021/11/03 12:08:10;;;;;;;3.70;2.95;;;8.60;99.90;;;;;;6249139;28;20044;-84
2021/11/03 12:11:19;;;;;;;2.17;1.98;;;8.20;99.90;;;;;;6271575;28;20095;-83
2021/11/03 12:14:39;;;;;;;2.85;2.13;;;8.60;99.90;;;;;;6220183;28;20029;-83
2021/11/03 12:17:51;;;;;;;2.08;1.90;;;8.60;99.90;;;;;;6268184;28;20036;-83
2021/11/03 12:20:57;;;;;;;3.95;2.53;;;8.20;99.90;;;;;;6263554;28;20034;-83
2021/11/03 12:24:07;;;;;;;5.45;3.00;;;8.30;99.90;;;;;;6265439;28;20034;-82
2021/11/03 12:27:23;;;;;;;8.70;5.57;;;8.30;99.90;;;;;;6246094;28;20400;-83
2021/11/03 12:30:24;;;;;;;2.50;2.20;;;;;;;;;;6267648;28;20491;-84
2021/11/03 12:33:25;;;;;;;3.40;2.65;;;;;;;;;;6252035;28;20508;-84
2021/11/03 12:36:26;;;;;;;2.03;1.67;;;;;;;;;;6241942;28;20484;-86
2021/11/03 12:39:32;;;;;;;2.30;2.10;;;8.30;99.90;;;;;;6247972;28;20031;-82
2021/11/03 12:42:34;;;;;;;4.43;4.03;;;;;;;;;;6256980;28;20053;-82
2021/11/03 12:46:02;;;;;;;3.30;2.53;;;8.40;99.90;;;;;;6270276;28;20112;-81
2021/11/03 12:49:03;;;;;;;9.07;5.75;;;;;;;;;;6258774;28;20029;-86
2021/11/03 12:52:04;;;;;;;1.38;1.27;;;8.90;99.90;;;;;;6261114;28;20025;-82
2021/11/03 12:55:04;;;;;;;1.33;1.23;;;8.40;99.90;;;;;;6225412;28;20156;-82
2021/11/03 12:58:05;;;;;;;1.75;1.65;;;8.50;99.90;;;;;;6225440;28;20165;-85
2021/11/03 13:01:20;;;;;;;2.58;2.28;;;8.80;99.90;;;;;;6224742;28;20021;-82
2021/11/03 13:04:32;;;;;;;1.70;1.60;;;8.40;99.90;;;;;;6227177;28;20037;-82
2021/11/03 13:07:39;;;;;;;2.63;2.40;;;8.50;99.90;;;;;;6258961;28;20030;-82
2021/11/03 13:10:42;;;;;;;1.30;1.10;;;8.40;99.90;;;;;;6231360;28;20467;-82
2021/11/03 13:13:49;;;;;;;7.38;5.55;;;8.50;99.90;;;;;;6245494;28;20088;-86
2021/11/03 13:16:50;;;;;;;2.75;2.55;;;8.60;99.90;;;;;;6249392;28;20025;-81
2021/11/03 13:19:50;;;;;;;1.90;1.80;;;8.50;99.90;;;;;;6244772;28;20430;-82
2021/11/03 13:22:51;;;;;;;1.90;1.80;;;;;;;;;;6243210;28;20099;-85
2021/11/03 13:25:55;;;;;;;2.40;2.20;;;8.60;99.90;;;;;;6243843;28;20025;-85
2021/11/03 13:28:56;;;;;;;3.25;2.00;;;8.70;99.90;;;;;;6240111;28;20025;-85
2021/11/03 13:32:20;;;;;;;10.45;6.05;;;8.50;99.90;;;;;;6230317;28;20357;-85
2021/11/03 13:35:23;;;;;;;5.75;3.20;;;8.60;99.90;;;;;;6244983;28;20484;-85
2021/11/03 13:38:26;;;;;;;13.07;9.98;;;8.60;99.90;;;;;;6231582;28;20514;-85
2021/11/03 13:41:38;;;;;;;6.70;5.88;;;8.70;99.90;;;;;;6237661;28;20470;-86
2021/11/03 13:44:39;;;;;;;3.00;2.30;;;8.70;99.90;;;;;;6233753;28;20702;-85
2021/11/03 13:47:40;;;;;;;3.30;2.90;;;8.60;99.90;;;;;;6233682;28;20554;-86
2021/11/03 13:50:50;;;;;;;5.32;4.10;;;8.80;99.90;;;;;;6247849;28;20030;-85
2021/11/03 13:54:00;;;;;;;8.10;5.20;;;8.70;99.90;;;;;;6258932;28;20033;-86
2021/11/03 13:57:21;;;;;;;9.07;5.55;;;8.70;99.90;;;;;;6228590;28;20398;-86
2021/11/03 14:00:23;;;;;;;17.30;8.77;;;8.50;99.90;;;;;;6226912;28;20077;-85
2021/11/03 14:03:36;;;;;;;18.83;11.68;;;8.60;99.90;;;;;;6262587;28;20049;-86
2021/11/03 14:07:02;;;;;;;18.80;11.02;;;8.80;99.90;;;;;;6262672;28;20036;-85
2021/11/03 14:10:02;;;;;;;13.45;7.00;;;8.60;99.90;;;;;;6228772;28;20037;-85
2021/11/03 14:13:03;;;;;;;9.13;6.15;;;;;;;;;;6258651;28;20048;-85
2021/11/03 14:16:25;;;;;;;5.53;4.38;;;8.90;99.90;;;;;;6277673;28;20037;-85
2021/11/03 14:19:41;;;;;;;22.77;14.38;;;8.70;99.90;;;;;;6237461;28;20115;-85
2021/11/03 14:22:42;;;;;;;69.28;36.50;;;8.60;99.90;;;;;;6264592;28;20029;-84
2021/11/03 14:25:43;;;;;;;47.15;28.10;;;8.40;99.90;;;;;;6250023;28;20025;-84
2021/11/03 14:28:44;;;;;;;23.48;14.57;;;;;;;;;;6261174;28;20386;-85
2021/11/03 14:31:45;;;;;;;20.42;12.90;;;8.50;99.90;;;;;;6277865;28;20037;-85
2021/11/03 14:34:50;;;;;;;17.88;9.43;;;8.40;99.90;;;;;;6231201;28;20445;-87
2021/11/03 14:37:51;;;;;;;7.10;5.40;;;8.60;99.90;;;;;;6242789;28;20577;-81
2021/11/03 14:40:52;;;;;;;6.72;5.13;;;8.50;99.90;;;;;;6240657;28;20365;-85
2021/11/03 14:43:53;;;;;;;4.93;4.10;;;8.50;99.90;;;;;;6223333;28;20096;-84
2021/11/03 14:46:59;;;;;;;4.05;3.35;;;8.80;99.90;;;;;;6224012;28;20048;-84
2021/11/03 14:50:19;;;;;;;2.25;2.00;;;8.50;99.90;;;;;;6249425;28;20483;-84
2021/11/03 14:53:22;;;;;;;4.22;2.83;;;8.30;99.90;;;;;;6242286;28;20034;-85
2021/11/03 14:56:22;;;;;;;2.42;2.13;;;8.30;99.90;;;;;;6224014;28;20068;-84
2021/11/03 14:59:23;;;;;;;2.80;2.45;;;8.40;99.90;;;;;;6255432;28;20036;-84
2021/11/03 15:02:29;;;;;;;5.88;3.80;;;8.50;99.90;;;;;;6224325;28;20049;-84
2021/11/03 15:05:31;;;;;;;5.10;2.72;;;8.50;99.90;;;;;;6241076;28;20091;-80
2021/11/03 15:08:32;;;;;;;5.47;2.63;;;8.30;99.90;;;;;;6245321;28;20515;-80
2021/11/03 15:11:33;;;;;;;4.20;2.92;;;;;;;;;;6260289;28;20042;-82
2021/11/03 15:14:35;;;;;;;7.00;5.65;;;8.40;99.90;;;;;;6244507;28;20040;-83
2021/11/03 15:17:35;;;;;;;4.95;3.78;;;8.10;99.90;;;;;;6245133;28;20033;-84
2021/11/03 15:20:36;;;;;;;3.20;2.70;;;8.00;99.90;;;;;;6249618;28;20037;-83
2021/11/03 15:23:37;;;;;;;3.22;2.63;;;;;;;;;;6245300;28;20041;-84
2021/11/03 15:26:38;;;;;;;2.03;1.83;;;;;;;;;;6245204;28;20041;-84
2021/11/03 15:29:39;;;;;;;4.90;2.55;;;;;;;;;;6261169;28;20458;-84
2021/11/03 15:32:40;;;;;;;2.15;1.95;;;8.20;99.90;;;;;;6260097;28;20029;-81
2021/11/03 15:35:41;;;;;;;2.60;1.85;;;7.80;99.90;;;;;;6249772;28;20502;-81
2021/11/03 15:38:49;;;;;;;1.88;1.77;;;8.00;99.90;;;;;;6251092;28;20090;-82
2021/11/03 15:41:50;;;;;;;2.08;1.90;;;;;;;;;;6269268;28;20047;-82
2021/11/03 15:44:52;;;;;;;2.03;1.90;;;8.20;99.90;;;;;;6259291;28;20375;-82
2021/11/03 15:47:52;;;;;;;2.83;2.17;;;8.10;99.90;;;;;;6228450;28;20128;-81
2021/11/03 15:50:54;;;;;;;8.32;3.53;;;;;;;;;;6252988;28;20049;-81
2021/11/03 15:53:54;;;;;;;3.85;2.58;;;8.00;99.90;;;;;;6247349;28;20041;-82
2021/11/03 15:56:55;;;;;;;3.40;3.10;;;8.40;99.90;;;;;;6256459;28;20112;-80
2021/11/03 15:59:55;;;;;;;2.05;1.92;;;8.30;99.90;;;;;;6244791;28;20030;-81
2021/11/03 16:03:01;;;;;;;3.40;3.08;;;8.30;99.90;;;;;;6253423;28;20123;-82
2021/11/03 16:06:02;;;;;;;3.65;2.80;;;8.10;99.90;;;;;;6269013;28;20108;-82
2021/11/03 16:09:06;;;;;;;13.77;7.63;;;7.80;99.90;;;;;;6256815;28;20041;-81
2021/11/03 16:12:07;;;;;;;8.13;5.22;;;;;;;;;;6251976;28;20103;-81
2021/11/03 16:15:08;;;;;;;9.88;4.80;;;8.10;99.90;;;;;;6263639;28;20035;-82
2021/11/03 16:18:09;;;;;;;5.50;3.72;;;;;;;;;;6247510;28;20103;-84
2021/11/03 16:21:25;;;;;;;5.53;3.17;;;8.10;99.90;;;;;;6266462;28;20044;-82
2021/11/03 16:24:27;;;;;;;3.83;3.30;;;8.00;99.90;;;;;;6260179;28;20068;-82
2021/11/03 16:27:30;;;;;;;3.20;2.47;;;8.00;99.90;;;;;;6257504;28;20513;-84
2021/11/03 16:30:35;;;;;;;3.70;2.70;;;7.80;99.90;;;;;;6239412;28;20682;-83
2021/11/03 16:33:36;;;;;;;13.65;9.65;;;;;;;;;;6254269;28;20029;-81
2021/11/03 16:36:37;;;;;;;8.00;6.20;;;7.80;99.90;;;;;;6274859;28;20037;-83
2021/11/03 16:39:38;;;;;;;4.85;3.97;;;7.90;99.90;;;;;;6253679;28;20068;-82
2021/11/03 16:42:43;;;;;;;5.18;3.55;;;7.90;99.90;;;;;;6230568;28;20398;-81
2021/11/03 16:45:49;;;;;;;6.00;3.70;;;8.00;99.90;;;;;;6275837;28;20041;-86
2021/11/03 16:48:50;;;;;;;3.65;2.50;;;7.80;99.90;;;;;;6220133;28;20049;-84